sensor_id;sensor_type;location;lat;lon;timestamp;P1;P2;P0
74426;PMS7003;62859;53.906;27.430;2023-02-18T00:02:00;6.5;6;4.8
74426;PMS7003;62859;53.906;27.430;2023-02-18T00:06:12;7.3;7.3;5.3
74426;PMS7003;62859;53.906;27.430;2023-02-18T00:11:44;7.7;6;4
74426;PMS7003;62859;53.906;27.430;2023-02-18T00:17:00;8.3;7;6
74426;PMS7003;62859;53.906;27.430;2023-02-18T00:21:54;8.5;6;5.3
74426;PMS7003;62859;53.906;27.430;2023-02-18T00:27:00;9.3;7.3;4.7
74426;PMS7003;62859;53.906;27.430;2023-02-18T00:31:25;7.3;5.3;4.7
74426;PMS7003;62859;53.906;27.430;2023-02-18T00:36:46;10;7;5.7
74426;PMS7003;62859;53.906;27.430;2023-02-18T00:42:00;6.8;6.3;4.8
74426;PMS7003;62859;53.906;27.430;2023-02-18T00:46:40;8.3;7.7;6.3
74426;PMS7003;62859;53.906;27.430;2023-02-18T00:52:00;9;7.3;5.7
74426;PMS7003;62859;53.906;27.430;2023-02-18T00:56:24;9.7;8.7;6.7
74426;PMS7003;62859;53.906;27.430;2023-02-18T01:01:44;8.3;6.8;5.8
74426;PMS7003;62859;53.906;27.430;2023-02-18T01:07:00;9.3;8.3;5.7
74426;PMS7003;62859;53.906;27.430;2023-02-18T01:11:40;10.3;7.3;6.7
74426;PMS7003;62859;53.906;27.430;2023-02-18T01:17:02;10;9.3;7.3
74426;PMS7003;62859;53.906;27.430;2023-02-18T01:21:26;10.8;9.5;6.5
74426;PMS7003;62859;53.906;27.430;2023-02-18T01:26:44;12.7;11.3;8.3
74426;PMS7003;62859;53.906;27.430;2023-02-18T01:31:26;10;8.7;6.7
74426;PMS7003;62859;53.906;27.430;2023-02-18T01:37:02;8;8;6
74426;PMS7003;62859;53.906;27.430;2023-02-18T01:41:52;8.7;7.3;6
74426;PMS7003;62859;53.906;27.430;2023-02-18T01:46:13;8.7;7.3;5.7
74426;PMS7003;62859;53.906;27.430;2023-02-18T01:51:46;7.3;6.3;4.7
74426;PMS7003;62859;53.906;27.430;2023-02-18T01:56:13;9.5;8.5;6.3
74426;PMS7003;62859;53.906;27.430;2023-02-18T02:02:02;9.3;9;6.7
74426;PMS7003;62859;53.906;27.430;2023-02-18T02:06:26;8.3;7;5.3
74426;PMS7003;62859;53.906;27.430;2023-02-18T02:11:16;9.3;8;6.7
74426;PMS7003;62859;53.906;27.430;2023-02-18T02:16:44;10.8;9.3;5.5
74426;PMS7003;62859;53.906;27.430;2023-02-18T02:21:33;16.7;14.7;9.3
74426;PMS7003;62859;53.906;27.430;2023-02-18T02:27:19;8.3;8;5.7
74426;PMS7003;62859;53.906;27.430;2023-02-18T02:31:29;12;11;7.3
74426;PMS7003;62859;53.906;27.430;2023-02-18T02:36:26;11.8;11;6.8
74426;PMS7003;62859;53.906;27.430;2023-02-18T02:41:39;8.7;8;6.3
74426;PMS7003;62859;53.906;27.430;2023-02-18T02:46:34;9.7;8;6
74426;PMS7003;62859;53.906;27.430;2023-02-18T02:52:01;10;9.7;7.3
74426;PMS7003;62859;53.906;27.430;2023-02-18T02:56:40;11.8;9.5;7
74426;PMS7003;62859;53.906;27.430;2023-02-18T03:01:21;8.7;8.7;5.7
74426;PMS7003;62859;53.906;27.430;2023-02-18T03:06:50;5.3;5.3;3
74426;PMS7003;62859;53.906;27.430;2023-02-18T03:11:42;5;4.7;2.7
74426;PMS7003;62859;53.906;27.430;2023-02-18T03:17:02;4.3;3.3;2.3
74426;PMS7003;62859;53.906;27.430;2023-02-18T03:21:52;6.7;5.7;4
74426;PMS7003;62859;53.906;27.430;2023-02-18T03:26:12;6.7;5;3.3
74426;PMS7003;62859;53.906;27.430;2023-02-18T03:31:44;6.5;6.3;3.8
74426;PMS7003;62859;53.906;27.430;2023-02-18T03:36:26;7.3;6.3;3.3
74426;PMS7003;62859;53.906;27.430;2023-02-18T03:41:48;6.3;6;3.7
74426;PMS7003;62859;53.906;27.430;2023-02-18T03:46:52;7.3;6;3.7
74426;PMS7003;62859;53.906;27.430;2023-02-18T03:51:12;5.8;5;3
74426;PMS7003;62859;53.906;27.430;2023-02-18T03:56:46;3.7;3;2.7
74426;PMS7003;62859;53.906;27.430;2023-02-18T04:01:26;5.7;4.7;3.3
74426;PMS7003;62859;53.906;27.430;2023-02-18T04:07:02;5.7;4.7;3.3
74426;PMS7003;62859;53.906;27.430;2023-02-18T04:11:38;5.5;5;3.3
74426;PMS7003;62859;53.906;27.430;2023-02-18T04:16:40;7;5.7;4.3
74426;PMS7003;62859;53.906;27.430;2023-02-18T04:21:38;4.3;3;2.3
74426;PMS7003;62859;53.906;27.430;2023-02-18T04:26:24;2.3;1.7;1
74426;PMS7003;62859;53.906;27.430;2023-02-18T04:32:00;2;1.3;0.8
74426;PMS7003;62859;53.906;27.430;2023-02-18T04:36:38;2.7;1.3;1
74426;PMS7003;62859;53.906;27.430;2023-02-18T04:41:24;0;0;0
74426;PMS7003;62859;53.906;27.430;2023-02-18T04:46:32;1.3;0.7;0
74426;PMS7003;62859;53.906;27.430;2023-02-18T04:51:26;1;0.8;0.5
74426;PMS7003;62859;53.906;27.430;2023-02-18T04:57:00;0.3;0.3;0
74426;PMS7003;62859;53.906;27.430;2023-02-18T05:02:00;0.7;0.7;0
74426;PMS7003;62859;53.906;27.430;2023-02-18T05:06:12;0.3;0;0
74426;PMS7003;62859;53.906;27.430;2023-02-18T05:11:38;0.8;0.5;0
74426;PMS7003;62859;53.906;27.430;2023-02-18T05:17:00;0.3;0.3;0
74426;PMS7003;62859;53.906;27.430;2023-02-18T05:21:48;0;0;0
74426;PMS7003;62859;53.906;27.430;2023-02-18T05:26:40;0.8;0.3;0
74426;PMS7003;62859;53.906;27.430;2023-02-18T05:31:26;1;0.7;0
74426;PMS7003;62859;53.906;27.430;2023-02-18T05:36:46;0.7;0.7;0
74426;PMS7003;62859;53.906;27.430;2023-02-18T05:41:24;0;0;0
74426;PMS7003;62859;53.906;27.430;2023-02-18T05:47:03;0.3;0.3;0.3
74426;PMS7003;62859;53.906;27.430;2023-02-18T05:51:38;1;0.3;0
74426;PMS7003;62859;53.906;27.430;2023-02-18T05:57:02;0.3;0.3;0
74426;PMS7003;62859;53.906;27.430;2023-02-18T06:01:44;0;0;0
74426;PMS7003;62859;53.906;27.430;2023-02-18T06:06:26;0.8;0.8;0.5
74426;PMS7003;62859;53.906;27.430;2023-02-18T06:12:02;6;5.3;3.7
74426;PMS7003;62859;53.906;27.430;2023-02-18T06:16:24;4.3;4;3.3
74426;PMS7003;62859;53.906;27.430;2023-02-18T06:22:02;1;0.7;0.3
74426;PMS7003;62859;53.906;27.430;2023-02-18T06:26:46;1;0.5;0.5
74426;PMS7003;62859;53.906;27.430;2023-02-18T06:31:24;1;0.3;0
74426;PMS7003;62859;53.906;27.430;2023-02-18T06:37:00;0.3;0.3;0.3
74426;PMS7003;62859;53.906;27.430;2023-02-18T06:41:12;0.3;0.3;0.3
74426;PMS7003;62859;53.906;27.430;2023-02-18T06:47:00;1;0.3;0.3
74426;PMS7003;62859;53.906;27.430;2023-02-18T06:51:32;0.3;0.3;0
74426;PMS7003;62859;53.906;27.430;2023-02-18T06:56:24;3;0.7;0
74426;PMS7003;62859;53.906;27.430;2023-02-18T07:01:58;0.3;0.3;0.3
74426;PMS7003;62859;53.906;27.430;2023-02-18T07:06:38;0.5;0.3;0
74426;PMS7003;62859;53.906;27.430;2023-02-18T07:12:00;0.3;0.3;0
74426;PMS7003;62859;53.906;27.430;2023-02-18T07:16:30;0;0;0
74426;PMS7003;62859;53.906;27.430;2023-02-18T07:21:24;0.8;0.3;0.3
74426;PMS7003;62859;53.906;27.430;2023-02-18T07:26:50;1.3;0.3;0
74426;PMS7003;62859;53.906;27.430;2023-02-18T07:31:12;0.7;0.3;0
74426;PMS7003;62859;53.906;27.430;2023-02-18T07:36:58;0.3;0;0
74426;PMS7003;62859;53.906;27.430;2023-02-18T07:41:42;0.3;0.3;0
74426;PMS7003;62859;53.906;27.430;2023-02-18T07:46:12;0;0;0
74426;PMS7003;62859;53.906;27.430;2023-02-18T07:51:58;0;0;0
74426;PMS7003;62859;53.906;27.430;2023-02-18T07:56:24;1.7;1.3;0.3
74426;PMS7003;62859;53.906;27.430;2023-02-18T08:02:00;0.5;0.5;0.3
74426;PMS7003;62859;53.906;27.430;2023-02-18T08:06:24;3.7;2;1.3
74426;PMS7003;62859;53.906;27.430;2023-02-18T08:11:12;1;0.7;0
74426;PMS7003;62859;53.906;27.430;2023-02-18T08:17:00;1.3;0.3;0
74426;PMS7003;62859;53.906;27.430;2023-02-18T08:21:12;0.8;0.5;0
74426;PMS7003;62859;53.906;27.430;2023-02-18T08:27:00;0.3;0.3;0
74426;PMS7003;62859;53.906;27.430;2023-02-18T08:31:15;0.3;0.3;0
74426;PMS7003;62859;53.906;27.430;2023-02-18T08:36:38;0.7;0.7;0.3
74426;PMS7003;62859;53.906;27.430;2023-02-18T08:41:58;0.8;0.5;0.3
74426;PMS7003;62859;53.906;27.430;2023-02-18T08:46:38;1.7;0.7;0.3
74426;PMS7003;62859;53.906;27.430;2023-02-18T08:52:00;2;1.3;0.3
74426;PMS7003;62859;53.906;27.430;2023-02-18T08:56:46;1.3;1.3;0.3
74426;PMS7003;62859;53.906;27.430;2023-02-18T09:01:12;1.5;0.8;0.5
74426;PMS7003;62859;53.906;27.430;2023-02-18T09:07:00;0.7;0.7;0.3
74426;PMS7003;62859;53.906;27.430;2023-02-18T09:11:24;5.3;4.7;2
74426;PMS7003;62859;53.906;27.430;2023-02-18T09:17:00;0.3;0;0
74426;PMS7003;62859;53.906;27.430;2023-02-18T09:21:24;0.7;0.7;0
74426;PMS7003;62859;53.906;27.430;2023-02-18T09:26:38;0.3;0.3;0.3
74426;PMS7003;62859;53.906;27.430;2023-02-18T09:32:00;1;1;0.3
74426;PMS7003;62859;53.906;27.430;2023-02-18T09:36:12;1;0;0
74426;PMS7003;62859;53.906;27.430;2023-02-18T09:41:46;0.3;0;0
74426;PMS7003;62859;53.906;27.430;2023-02-18T09:46:46;0.3;0.3;0
74426;PMS7003;62859;53.906;27.430;2023-02-18T09:51:30;0.3;0.3;0
74426;PMS7003;62859;53.906;27.430;2023-02-18T09:56:44;0.3;0.3;0
74426;PMS7003;62859;53.906;27.430;2023-02-18T10:01:25;1;1;0.3
74426;PMS7003;62859;53.906;27.430;2023-02-18T10:07:00;2.3;1.7;0.7
74426;PMS7003;62859;53.906;27.430;2023-02-18T10:11:42;2.3;2;0.3
74426;PMS7003;62859;53.906;27.430;2023-02-18T10:16:14;1;1;0.5
74426;PMS7003;62859;53.906;27.430;2023-02-18T10:21:44;1.3;1;0
74426;PMS7003;62859;53.906;27.430;2023-02-18T10:26:24;0.7;0;0
74426;PMS7003;62859;53.906;27.430;2023-02-18T10:31:35;1;0.7;0
74426;PMS7003;62859;53.906;27.430;2023-02-18T10:36:43;0.8;0.8;0.3
74426;PMS7003;62859;53.906;27.430;2023-02-18T10:41:13;0.3;0.3;0.3
74426;PMS7003;62859;53.906;27.430;2023-02-18T10:46:44;0;0;0
74426;PMS7003;62859;53.906;27.430;2023-02-18T10:51:36;0;0;0
74426;PMS7003;62859;53.906;27.430;2023-02-18T10:56:46;0.5;0;0
74426;PMS7003;62859;53.906;27.430;2023-02-18T11:01:42;0;0;0
74426;PMS7003;62859;53.906;27.430;2023-02-18T11:06:45;1;0.3;0.3
74426;PMS7003;62859;53.906;27.430;2023-02-18T11:11:42;0.8;0.8;0.5
74426;PMS7003;62859;53.906;27.430;2023-02-18T11:16:35;0.3;0.3;0
74426;PMS7003;62859;53.906;27.430;2023-02-18T11:22:05;0;0;0
74426;PMS7003;62859;53.906;27.430;2023-02-18T11:26:31;1.7;0.7;0
74426;PMS7003;62859;53.906;27.430;2023-02-18T11:31:15;1;0.3;0
74426;PMS7003;62859;53.906;27.430;2023-02-18T11:36:42;0;0;0
74426;PMS7003;62859;53.906;27.430;2023-02-18T11:41:30;1.7;0.3;0
74426;PMS7003;62859;53.906;27.430;2023-02-18T11:46:59;0;0;0
74426;PMS7003;62859;53.906;27.430;2023-02-18T11:52:02;1.5;0.5;0.5
74426;PMS7003;62859;53.906;27.430;2023-02-18T11:56:15;0.3;0.3;0
74426;PMS7003;62859;53.906;27.430;2023-02-18T12:01:42;0.3;0.3;0
74426;PMS7003;62859;53.906;27.430;2023-02-18T12:06:25;0;0;0
74426;PMS7003;62859;53.906;27.430;2023-02-18T12:11:59;0.3;0.3;0
74426;PMS7003;62859;53.906;27.430;2023-02-18T12:16:44;1;0.3;0.3
74426;PMS7003;62859;53.906;27.430;2023-02-18T12:21:34;0.7;0.7;0
74426;PMS7003;62859;53.906;27.430;2023-02-18T12:26:44;0.3;0.3;0
74426;PMS7003;62859;53.906;27.430;2023-02-18T12:31:15;0.3;0.3;0
74426;PMS7003;62859;53.906;27.430;2023-02-18T12:37:00;0;0;0
74426;PMS7003;62859;53.906;27.430;2023-02-18T12:41:45;0.7;0.3;0.3
74426;PMS7003;62859;53.906;27.430;2023-02-18T12:46:16;1;1;0
74426;PMS7003;62859;53.906;27.430;2023-02-18T12:51:45;0.8;0.5;0.5
74426;PMS7003;62859;53.906;27.430;2023-02-18T12:56:35;2.3;1.7;0.7
74426;PMS7003;62859;53.906;27.430;2023-02-18T13:01:59;1;0.7;0.3
74426;PMS7003;62859;53.906;27.430;2023-02-18T13:06:39;0.3;0.3;0
74426;PMS7003;62859;53.906;27.430;2023-02-18T13:11:14;0.3;0.3;0.3
74426;PMS7003;62859;53.906;27.430;2023-02-18T13:16:58;0.7;0.7;0
74426;PMS7003;62859;53.906;27.430;2023-02-18T13:21:36;3.7;3.7;2
74426;PMS7003;62859;53.906;27.430;2023-02-18T13:26:46;0.5;0.5;0
74426;PMS7003;62859;53.906;27.430;2023-02-18T13:31:43;1;0.7;0
74426;PMS7003;62859;53.906;27.430;2023-02-18T13:36:45;1.3;1;0.3
74426;PMS7003;62859;53.906;27.430;2023-02-18T13:41:42;0.3;0.3;0
74426;PMS7003;62859;53.906;27.430;2023-02-18T13:46:24;0.8;0.3;0
74426;PMS7003;62859;53.906;27.430;2023-02-18T13:51:58;0;0;0
74426;PMS7003;62859;53.906;27.430;2023-02-18T13:56:42;0.3;0.3;0
74426;PMS7003;62859;53.906;27.430;2023-02-18T14:01:34;0.7;0.3;0
74426;PMS7003;62859;53.906;27.430;2023-02-18T14:06:43;0.3;0.3;0
74426;PMS7003;62859;53.906;27.430;2023-02-18T14:11:31;0;0;0
74426;PMS7003;62859;53.906;27.430;2023-02-18T14:17:29;0.3;0;0
74426;PMS7003;62859;53.906;27.430;2023-02-18T14:21:37;0.7;0;0
74426;PMS7003;62859;53.906;27.430;2023-02-18T14:26:27;0.5;0;0
74426;PMS7003;62859;53.906;27.430;2023-02-18T14:31:59;0;0;0
74426;PMS7003;62859;53.906;27.430;2023-02-18T14:36:24;2;0.7;0
74426;PMS7003;62859;53.906;27.430;2023-02-18T14:41:21;0.7;0;0
74426;PMS7003;62859;53.906;27.430;2023-02-18T14:46:39;0.5;0.3;0
74426;PMS7003;62859;53.906;27.430;2023-02-18T14:51:27;0.3;0.3;0
74426;PMS7003;62859;53.906;27.430;2023-02-18T14:57:03;0;0;0
74426;PMS7003;62859;53.906;27.430;2023-02-18T15:01:38;0;0;0
74426;PMS7003;62859;53.906;27.430;2023-02-18T15:06:46;0;0;0
74426;PMS7003;62859;53.906;27.430;2023-02-18T15:11:37;0;0;0
74426;PMS7003;62859;53.906;27.430;2023-02-18T15:16:25;0;0;0
74426;PMS7003;62859;53.906;27.430;2023-02-18T15:22:00;0.3;0.3;0
74426;PMS7003;62859;53.906;27.430;2023-02-18T15:26:12;0;0;0
74426;PMS7003;62859;53.906;27.430;2023-02-18T15:31:44;0.3;0.3;0
74426;PMS7003;62859;53.906;27.430;2023-02-18T15:36:38;0.7;0.7;0.3
74426;PMS7003;62859;53.906;27.430;2023-02-18T15:41:24;0.8;0.5;0.3
74426;PMS7003;62859;53.906;27.430;2023-02-18T15:47:02;0.3;0;0
74426;PMS7003;62859;53.906;27.430;2023-02-18T15:51:12;2.3;1.3;0.3
74426;PMS7003;62859;53.906;27.430;2023-02-18T15:56:44;0.7;0;0
74426;PMS7003;62859;53.906;27.430;2023-02-18T16:01:22;1.8;0.8;0
74426;PMS7003;62859;53.906;27.430;2023-02-18T16:06:25;0.3;0.3;0
74426;PMS7003;62859;53.906;27.430;2023-02-18T16:12:00;0;0;0
74426;PMS7003;62859;53.906;27.430;2023-02-18T16:16:38;0.7;0.7;0.3
74426;PMS7003;62859;53.906;27.430;2023-02-18T16:21:48;0;0;0
74426;PMS7003;62859;53.906;27.430;2023-02-18T16:26:26;2.3;1;0.3
74426;PMS7003;62859;53.906;27.430;2023-02-18T16:31:26;1.3;0.7;0
74426;PMS7003;62859;53.906;27.430;2023-02-18T16:37:00;1;1;0.3
74426;PMS7003;62859;53.906;27.430;2023-02-18T16:41:12;0.8;0.5;0.3
74426;PMS7003;62859;53.906;27.430;2023-02-18T16:46:44;1;0.3;0.3
74426;PMS7003;62859;53.906;27.430;2023-02-18T16:51:13;0.3;0.3;0
74426;PMS7003;62859;53.906;27.430;2023-02-18T16:56:26;0;0;0
74426;PMS7003;62859;53.906;27.430;2023-02-18T17:01:58;0.7;0.3;0
74426;PMS7003;62859;53.906;27.430;2023-02-18T17:06:38;0.3;0.3;0
74426;PMS7003;62859;53.906;27.430;2023-02-18T17:11:46;0;0;0
74426;PMS7003;62859;53.906;27.430;2023-02-18T17:16:24;2;1;0
74426;PMS7003;62859;53.906;27.430;2023-02-18T17:21:24;2;2;1
74426;PMS7003;62859;53.906;27.430;2023-02-18T17:27:02;1.3;1;0
74426;PMS7003;62859;53.906;27.430;2023-02-18T17:31:13;0.3;0.3;0
74426;PMS7003;62859;53.906;27.430;2023-02-18T17:36:46;1;0.5;0.3
74426;PMS7003;62859;53.906;27.430;2023-02-18T17:41:24;0.7;0;0
74426;PMS7003;62859;53.906;27.430;2023-02-18T17:46:26;0.3;0.3;0
74426;PMS7003;62859;53.906;27.430;2023-02-18T17:52:00;0.3;0.3;0
74426;PMS7003;62859;53.906;27.430;2023-02-18T17:56:12;1.5;0.8;0
74426;PMS7003;62859;53.906;27.430;2023-02-18T18:01:30;0;0;0
74426;PMS7003;62859;53.906;27.430;2023-02-18T18:06:36;1.3;1.3;1
74426;PMS7003;62859;53.906;27.430;2023-02-18T18:11:12;0.3;0.3;0.3
74426;PMS7003;62859;53.906;27.430;2023-02-18T18:16:58;0;0;0
74426;PMS7003;62859;53.906;27.430;2023-02-18T18:22:00;1;0.3;0
74426;PMS7003;62859;53.906;27.430;2023-02-18T18:26:46;1.7;0.3;0
74426;PMS7003;62859;53.906;27.430;2023-02-18T18:31:50;0;0;0
74426;PMS7003;62859;53.906;27.430;2023-02-18T18:36:30;0.3;0;0
74426;PMS7003;62859;53.906;27.430;2023-02-18T18:41:34;0;0;0
74426;PMS7003;62859;53.906;27.430;2023-02-18T18:46:12;0;0;0
74426;PMS7003;62859;53.906;27.430;2023-02-18T18:52:03;0.5;0.5;0
74426;PMS7003;62859;53.906;27.430;2023-02-18T18:56:12;0.7;0.3;0.3
74426;PMS7003;62859;53.906;27.430;2023-02-18T19:01:24;0;0;0
74426;PMS7003;62859;53.906;27.430;2023-02-18T19:06:30;1;0.3;0
74426;PMS7003;62859;53.906;27.430;2023-02-18T19:11:12;0.5;0.3;0.3
74426;PMS7003;62859;53.906;27.430;2023-02-18T19:17:00;0.7;0.7;0
74426;PMS7003;62859;53.906;27.430;2023-02-18T19:21:40;2;0.7;0
74426;PMS7003;62859;53.906;27.430;2023-02-18T19:26:24;1.3;0;0
74426;PMS7003;62859;53.906;27.430;2023-02-18T19:31:32;1.3;0.8;0.3
74426;PMS7003;62859;53.906;27.430;2023-02-18T19:36:26;1;0.7;0
74426;PMS7003;62859;53.906;27.430;2023-02-18T19:41:58;1;0.7;0
74426;PMS7003;62859;53.906;27.430;2023-02-18T19:46:52;0.7;0.3;0
74426;PMS7003;62859;53.906;27.430;2023-02-18T19:51:12;1;0.8;0.3
74426;PMS7003;62859;53.906;27.430;2023-02-18T19:56:30;0.7;0;0
74426;PMS7003;62859;53.906;27.430;2023-02-18T20:01:12;0.3;0;0
74426;PMS7003;62859;53.906;27.430;2023-02-18T20:06:58;0.7;0.3;0
74426;PMS7003;62859;53.906;27.430;2023-02-18T20:11:52;0.5;0;0
74426;PMS7003;62859;53.906;27.430;2023-02-18T20:16:20;0.3;0;0
74426;PMS7003;62859;53.906;27.430;2023-02-18T20:21:24;0;0;0
74426;PMS7003;62859;53.906;27.430;2023-02-18T20:26:12;1;0;0
74426;PMS7003;62859;53.906;27.430;2023-02-18T20:32:00;0.8;0.5;0
74426;PMS7003;62859;53.906;27.430;2023-02-18T20:36:52;0.3;0.3;0.3
74426;PMS7003;62859;53.906;27.430;2023-02-18T20:41:24;2;0.7;0
74426;PMS7003;62859;53.906;27.430;2023-02-18T20:46:12;0.5;0;0
74426;PMS7003;62859;53.906;27.430;2023-02-18T20:51:14;0.3;0.3;0
74426;PMS7003;62859;53.906;27.430;2023-02-18T20:57:00;0.3;0.3;0.3
74426;PMS7003;62859;53.906;27.430;2023-02-18T21:01:50;0;0;0
74426;PMS7003;62859;53.906;27.430;2023-02-18T21:06:12;0;0;0
74426;PMS7003;62859;53.906;27.430;2023-02-18T21:11:34;0.7;0;0
74426;PMS7003;62859;53.906;27.430;2023-02-18T21:16:12;0;0;0
74426;PMS7003;62859;53.906;27.430;2023-02-18T21:22:02;0;0;0
74426;PMS7003;62859;53.906;27.430;2023-02-18T21:26:50;0.3;0.3;0
74426;PMS7003;62859;53.906;27.430;2023-02-18T21:31:32;1;0;0
74426;PMS7003;62859;53.906;27.430;2023-02-18T21:36:24;1.3;0.3;0
74426;PMS7003;62859;53.906;27.430;2023-02-18T21:41:12;1;0.3;0
74426;PMS7003;62859;53.906;27.430;2023-02-18T21:46:46;0.5;0;0
74426;PMS7003;62859;53.906;27.430;2023-02-18T21:51:52;0.7;0.7;0
74426;PMS7003;62859;53.906;27.430;2023-02-18T21:56:12;0.7;0.3;0
74426;PMS7003;62859;53.906;27.430;2023-02-18T22:01:30;0.3;0.3;0
74426;PMS7003;62859;53.906;27.430;2023-02-18T22:06:24;0.3;0;0
74426;PMS7003;62859;53.906;27.430;2023-02-18T22:11:58;0.7;0.3;0
74426;PMS7003;62859;53.906;27.430;2023-02-18T22:16:50;0.3;0.3;0
74426;PMS7003;62859;53.906;27.430;2023-02-18T22:21:12;1;0.3;0
74426;PMS7003;62859;53.906;27.430;2023-02-18T22:26:30;0.8;0;0
74426;PMS7003;62859;53.906;27.430;2023-02-18T22:31:32;0.3;0;0
74426;PMS7003;62859;53.906;27.430;2023-02-18T22:36:54;0.3;0.3;0
74426;PMS7003;62859;53.906;27.430;2023-02-18T22:41:52;0.8;0.3;0
74426;PMS7003;62859;53.906;27.430;2023-02-18T22:47:02;0.3;0;0
74426;PMS7003;62859;53.906;27.430;2023-02-18T22:51:33;0.3;0.3;0
74426;PMS7003;62859;53.906;27.430;2023-02-18T22:56:25;0.3;0.3;0
74426;PMS7003;62859;53.906;27.430;2023-02-18T23:02:00;1;0;0
74426;PMS7003;62859;53.906;27.430;2023-02-18T23:07:00;0;0;0
74426;PMS7003;62859;53.906;27.430;2023-02-18T23:11:54;0;0;0
74426;PMS7003;62859;53.906;27.430;2023-02-18T23:16:24;0.7;0;0
74426;PMS7003;62859;53.906;27.430;2023-02-18T23:21:32;0.5;0.3;0.3
74426;PMS7003;62859;53.906;27.430;2023-02-18T23:27:02;0;0;0
74426;PMS7003;62859;53.906;27.430;2023-02-18T23:31:52;0.3;0.3;0
74426;PMS7003;62859;53.906;27.430;2023-02-18T23:37:00;1;0.7;0
74426;PMS7003;62859;53.906;27.430;2023-02-18T23:41:12;0.8;0.5;0
74426;PMS7003;62859;53.906;27.430;2023-02-18T23:46:12;1;0.7;0.3
74426;PMS7003;62859;53.906;27.430;2023-02-18T23:51:42;0;0;0
74426;PMS7003;62859;53.906;27.430;2023-02-18T23:56:36;0;0;0
